sensor_id;sensor_type;location;lat;lon;timestamp;pressure;altitude;pressure_sealevel;temperature;humidity
55604;BME280;41468;48.838;9.330;2023-08-12T00:00:31;98586.38;;;20.32;96.91
55604;BME280;41468;48.838;9.330;2023-08-12T00:02:57;98593.13;;;20.30;96.98
55604;BME280;41468;48.838;9.330;2023-08-12T00:05:24;98585.38;;;20.22;97.67
55604;BME280;41468;48.838;9.330;2023-08-12T00:07:51;98583.75;;;20.24;97.30
55604;BME280;41468;48.838;9.330;2023-08-12T00:10:18;98581.09;;;20.17;97.74
55604;BME280;41468;48.838;9.330;2023-08-12T00:12:45;98578.69;;;20.19;97.95
55604;BME280;41468;48.838;9.330;2023-08-12T00:15:12;98573.88;;;20.23;98.08
55604;BME280;41468;48.838;9.330;2023-08-12T00:17:38;98578.47;;;20.30;97.23
55604;BME280;41468;48.838;9.330;2023-08-12T00:20:09;98574.34;;;20.38;97.59
55604;BME280;41468;48.838;9.330;2023-08-12T00:22:47;98570.81;;;20.38;97.37
55604;BME280;41468;48.838;9.330;2023-08-12T00:25:26;98564.97;;;20.32;98.13
55604;BME280;41468;48.838;9.330;2023-08-12T00:28:05;98556.59;;;20.36;97.99
55604;BME280;41468;48.838;9.330;2023-08-12T00:30:47;98560.34;;;20.25;98.65
55604;BME280;41468;48.838;9.330;2023-08-12T00:33:26;98552.75;;;20.29;98.69
55604;BME280;41468;48.838;9.330;2023-08-12T00:36:05;98551.75;;;20.20;99.51
55604;BME280;41468;48.838;9.330;2023-08-12T00:38:44;98546.19;;;20.20;99.29
55604;BME280;41468;48.838;9.330;2023-08-12T00:41:11;98538.53;;;20.07;100.00
55604;BME280;41468;48.838;9.330;2023-08-12T00:43:38;98536.47;;;20.12;99.91
55604;BME280;41468;48.838;9.330;2023-08-12T00:46:04;98532.84;;;20.15;100.00
55604;BME280;41468;48.838;9.330;2023-08-12T00:48:32;98541.22;;;20.11;99.54
55604;BME280;41468;48.838;9.330;2023-08-12T00:50:59;98535.69;;;20.11;99.90
55604;BME280;41468;48.838;9.330;2023-08-12T00:53:26;98534.84;;;20.14;99.40
55604;BME280;41468;48.838;9.330;2023-08-12T00:55:53;98537.47;;;20.21;98.80
55604;BME280;41468;48.838;9.330;2023-08-12T00:58:21;98528.00;;;20.19;98.96
55604;BME280;41468;48.838;9.330;2023-08-12T01:00:48;98529.25;;;20.18;98.61
55604;BME280;41468;48.838;9.330;2023-08-12T01:03:15;98535.06;;;20.23;98.17
55604;BME280;41468;48.838;9.330;2023-08-12T01:05:42;98528.22;;;20.28;98.59
55604;BME280;41468;48.838;9.330;2023-08-12T01:08:09;98527.25;;;20.18;98.63
55604;BME280;41468;48.838;9.330;2023-08-12T01:10:39;98522.28;;;20.10;99.71
55604;BME280;41468;48.838;9.330;2023-08-12T01:13:29;98522.31;;;20.06;99.21
55604;BME280;41468;48.838;9.330;2023-08-12T01:16:00;98520.41;;;20.03;99.42
55604;BME280;41468;48.838;9.330;2023-08-12T01:18:30;98513.66;;;20.04;99.53
55604;BME280;41468;48.838;9.330;2023-08-12T01:20:58;98511.03;;;19.97;99.02
55604;BME280;41468;48.838;9.330;2023-08-12T01:23:25;98512.31;;;19.92;99.66
55604;BME280;41468;48.838;9.330;2023-08-12T01:25:52;98509.81;;;19.98;99.48
55604;BME280;41468;48.838;9.330;2023-08-12T01:28:19;98506.97;;;20.01;99.15
55604;BME280;41468;48.838;9.330;2023-08-12T01:30:57;98503.41;;;20.01;99.30
55604;BME280;41468;48.838;9.330;2023-08-12T01:36:24;98500.84;;;19.90;100.00
55604;BME280;41468;48.838;9.330;2023-08-12T01:38:57;98506.84;;;19.89;100.00
55604;BME280;41468;48.838;9.330;2023-08-12T01:41:30;98505.75;;;19.82;100.00
55604;BME280;41468;48.838;9.330;2023-08-12T01:43:57;98505.63;;;19.90;100.00
55604;BME280;41468;48.838;9.330;2023-08-12T01:46:24;98497.19;;;19.97;99.38
55604;BME280;41468;48.838;9.330;2023-08-12T01:48:51;98493.19;;;19.98;99.50
55604;BME280;41468;48.838;9.330;2023-08-12T01:51:17;98495.19;;;19.97;99.65
55604;BME280;41468;48.838;9.330;2023-08-12T01:53:44;98478.63;;;19.94;99.60
55604;BME280;41468;48.838;9.330;2023-08-12T01:56:11;98486.16;;;19.93;99.29
55604;BME280;41468;48.838;9.330;2023-08-12T01:58:38;98484.88;;;19.98;98.66
55604;BME280;41468;48.838;9.330;2023-08-12T02:01:04;98490.00;;;19.99;98.03
55604;BME280;41468;48.838;9.330;2023-08-12T02:03:31;98493.06;;;20.05;96.73
55604;BME280;41468;48.838;9.330;2023-08-12T02:05:58;98486.28;;;20.06;96.24
55604;BME280;41468;48.838;9.330;2023-08-12T02:08:25;98487.00;;;20.10;96.03
55604;BME280;41468;48.838;9.330;2023-08-12T02:10:52;98497.94;;;20.17;95.16
55604;BME280;41468;48.838;9.330;2023-08-12T02:13:18;98489.56;;;20.21;93.62
55604;BME280;41468;48.838;9.330;2023-08-12T02:15:45;98489.84;;;20.26;93.65
55604;BME280;41468;48.838;9.330;2023-08-12T02:18:12;98489.47;;;20.24;94.37
55604;BME280;41468;48.838;9.330;2023-08-12T02:20:40;98498.16;;;20.26;94.73
55604;BME280;41468;48.838;9.330;2023-08-12T02:23:07;98491.41;;;20.27;94.52
55604;BME280;41468;48.838;9.330;2023-08-12T02:25:34;98494.88;;;20.32;93.54
55604;BME280;41468;48.838;9.330;2023-08-12T02:28:01;98492.09;;;20.32;93.49
55604;BME280;41468;48.838;9.330;2023-08-12T02:30:29;98485.34;;;20.33;93.56
55604;BME280;41468;48.838;9.330;2023-08-12T02:32:56;98479.28;;;20.38;92.75
55604;BME280;41468;48.838;9.330;2023-08-12T02:35:22;98480.50;;;20.37;92.75
55604;BME280;41468;48.838;9.330;2023-08-12T02:38:00;98471.75;;;20.38;92.94
55604;BME280;41468;48.838;9.330;2023-08-12T02:40:27;98476.66;;;20.30;92.97
55604;BME280;41468;48.838;9.330;2023-08-12T02:42:54;98470.25;;;20.34;93.26
55604;BME280;41468;48.838;9.330;2023-08-12T02:45:20;98469.56;;;20.29;93.63
55604;BME280;41468;48.838;9.330;2023-08-12T02:47:47;98465.06;;;20.36;93.13
55604;BME280;41468;48.838;9.330;2023-08-12T02:50:14;98462.66;;;20.38;92.36
55604;BME280;41468;48.838;9.330;2023-08-12T02:52:41;98455.06;;;20.42;92.22
55604;BME280;41468;48.838;9.330;2023-08-12T02:55:08;98454.97;;;20.45;91.87
55604;BME280;41468;48.838;9.330;2023-08-12T02:57:35;98458.50;;;20.46;91.71
55604;BME280;41468;48.838;9.330;2023-08-12T03:00:02;98451.22;;;20.52;90.87
55604;BME280;41468;48.838;9.330;2023-08-12T03:02:30;98457.53;;;20.56;90.41
55604;BME280;41468;48.838;9.330;2023-08-12T03:04:57;98454.41;;;20.54;90.60
55604;BME280;41468;48.838;9.330;2023-08-12T03:07:24;98456.31;;;20.57;90.82
55604;BME280;41468;48.838;9.330;2023-08-12T03:09:50;98457.53;;;20.56;90.94
55604;BME280;41468;48.838;9.330;2023-08-12T03:12:17;98461.78;;;20.61;90.73
55604;BME280;41468;48.838;9.330;2023-08-12T03:14:44;98456.31;;;20.57;91.40
55604;BME280;41468;48.838;9.330;2023-08-12T03:17:11;98461.50;;;20.55;91.10
55604;BME280;41468;48.838;9.330;2023-08-12T03:19:38;98454.41;;;20.54;91.43
55604;BME280;41468;48.838;9.330;2023-08-12T03:22:05;98459.44;;;20.59;91.01
55604;BME280;41468;48.838;9.330;2023-08-12T03:24:31;98449.63;;;20.55;91.05
55604;BME280;41468;48.838;9.330;2023-08-12T03:26:58;98454.75;;;20.56;91.44
55604;BME280;41468;48.838;9.330;2023-08-12T03:29:25;98461.44;;;20.59;90.65
55604;BME280;41468;48.838;9.330;2023-08-12T03:31:52;98457.28;;;20.67;90.37
55604;BME280;41468;48.838;9.330;2023-08-12T03:34:18;98456.94;;;20.65;89.24
55604;BME280;41468;48.838;9.330;2023-08-12T03:36:45;98450.94;;;20.66;89.81
55604;BME280;41468;48.838;9.330;2023-08-12T03:39:14;98453.47;;;20.61;89.64
55604;BME280;41468;48.838;9.330;2023-08-12T03:41:42;98447.81;;;20.64;89.89
55604;BME280;41468;48.838;9.330;2023-08-12T03:44:09;98445.41;;;20.66;89.59
55604;BME280;41468;48.838;9.330;2023-08-12T03:46:35;98448.00;;;20.73;89.92
55604;BME280;41468;48.838;9.330;2023-08-12T03:49:02;98450.78;;;20.73;89.33
55604;BME280;41468;48.838;9.330;2023-08-12T03:51:29;98446.97;;;20.67;89.70
55604;BME280;41468;48.838;9.330;2023-08-12T03:53:56;98445.72;;;20.68;89.63
55604;BME280;41468;48.838;9.330;2023-08-12T03:56:23;98441.81;;;20.66;89.55
55604;BME280;41468;48.838;9.330;2023-08-12T03:58:51;98439.84;;;20.66;89.87
55604;BME280;41468;48.838;9.330;2023-08-12T04:01:18;98442.69;;;20.63;90.27
55604;BME280;41468;48.838;9.330;2023-08-12T04:03:44;98446.28;;;20.63;89.77
55604;BME280;41468;48.838;9.330;2023-08-12T04:06:11;98452.16;;;20.65;89.48
55604;BME280;41468;48.838;9.330;2023-08-12T04:08:38;98451.81;;;20.63;89.47
55604;BME280;41468;48.838;9.330;2023-08-12T04:11:05;98453.72;;;20.66;89.65
55604;BME280;41468;48.838;9.330;2023-08-12T04:13:32;98452.16;;;20.65;89.35
55604;BME280;41468;48.838;9.330;2023-08-12T04:15:58;98461.25;;;20.66;90.93
55604;BME280;41468;48.838;9.330;2023-08-12T04:18:25;98457.78;;;20.62;91.94
55604;BME280;41468;48.838;9.330;2023-08-12T04:20:52;98458.56;;;20.62;92.66
55604;BME280;41468;48.838;9.330;2023-08-12T04:23:20;98456.31;;;20.57;92.66
55604;BME280;41468;48.838;9.330;2023-08-12T04:25:47;98465.50;;;20.54;93.00
55604;BME280;41468;48.838;9.330;2023-08-12T04:28:15;98471.81;;;20.55;94.18
55604;BME280;41468;48.838;9.330;2023-08-12T04:30:43;98467.09;;;20.51;93.97
55604;BME280;41468;48.838;9.330;2023-08-12T04:33:10;98475.41;;;20.51;94.22
55604;BME280;41468;48.838;9.330;2023-08-12T04:35:37;98484.13;;;20.54;94.04
55604;BME280;41468;48.838;9.330;2023-08-12T04:38:03;98479.34;;;20.54;94.55
55604;BME280;41468;48.838;9.330;2023-08-12T04:40:31;98481.75;;;20.52;94.31
55604;BME280;41468;48.838;9.330;2023-08-12T04:42:59;98477.50;;;20.47;95.03
55604;BME280;41468;48.838;9.330;2023-08-12T04:45:26;98475.16;;;20.46;95.47
55604;BME280;41468;48.838;9.330;2023-08-12T04:47:55;98476.78;;;20.43;95.62
55604;BME280;41468;48.838;9.330;2023-08-12T04:50:21;98483.22;;;20.40;95.71
55604;BME280;41468;48.838;9.330;2023-08-12T04:52:48;98479.28;;;20.38;96.29
55604;BME280;41468;48.838;9.330;2023-08-12T04:55:15;98495.06;;;20.41;95.49
55604;BME280;41468;48.838;9.330;2023-08-12T04:57:42;98489.97;;;20.39;96.86
55604;BME280;41468;48.838;9.330;2023-08-12T05:00:09;98476.19;;;20.52;95.36
55604;BME280;41468;48.838;9.330;2023-08-12T05:02:36;98483.84;;;20.48;95.21
55604;BME280;41468;48.838;9.330;2023-08-12T05:05:03;98471.88;;;20.51;95.16
55604;BME280;41468;48.838;9.330;2023-08-12T05:07:30;98479.66;;;20.40;95.58
55604;BME280;41468;48.838;9.330;2023-08-12T05:09:57;98479.84;;;20.49;96.03
55604;BME280;41468;48.838;9.330;2023-08-12T05:12:24;98473.91;;;20.30;96.39
55604;BME280;41468;48.838;9.330;2023-08-12T05:14:51;98473.03;;;20.34;97.23
55604;BME280;41468;48.838;9.330;2023-08-12T05:17:18;98483.28;;;20.37;96.84
55604;BME280;41468;48.838;9.330;2023-08-12T05:19:44;98487.88;;;20.43;97.67
55604;BME280;41468;48.838;9.330;2023-08-12T05:22:11;98479.47;;;20.47;97.78
55604;BME280;41468;48.838;9.330;2023-08-12T05:24:38;98484.19;;;20.50;98.08
55604;BME280;41468;48.838;9.330;2023-08-12T05:27:05;98483.84;;;20.48;99.13
55604;BME280;41468;48.838;9.330;2023-08-12T05:29:32;98487.69;;;20.54;99.84
55604;BME280;41468;48.838;9.330;2023-08-12T05:31:59;98470.69;;;20.68;100.00
55604;BME280;41468;48.838;9.330;2023-08-12T05:34:26;98456.50;;;20.66;98.35
55604;BME280;41468;48.838;9.330;2023-08-12T05:36:53;98460.06;;;20.67;97.62
55604;BME280;41468;48.838;9.330;2023-08-12T05:39:20;98463.25;;;20.65;98.75
55604;BME280;41468;48.838;9.330;2023-08-12T05:41:47;98469.41;;;20.73;99.15
55604;BME280;41468;48.838;9.330;2023-08-12T05:44:14;98475.69;;;20.77;98.74
55604;BME280;41468;48.838;9.330;2023-08-12T05:46:41;98481.13;;;20.81;98.75
55604;BME280;41468;48.838;9.330;2023-08-12T05:49:08;98477.59;;;20.80;98.78
55604;BME280;41468;48.838;9.330;2023-08-12T05:51:35;98489.09;;;20.79;99.67
55604;BME280;41468;48.838;9.330;2023-08-12T05:54:02;98489.38;;;20.84;99.39
55604;BME280;41468;48.838;9.330;2023-08-12T05:56:29;98481.56;;;20.79;98.93
55604;BME280;41468;48.838;9.330;2023-08-12T05:58:55;98474.19;;;20.72;100.00
55604;BME280;41468;48.838;9.330;2023-08-12T06:01:22;98474.97;;;20.73;100.00
55604;BME280;41468;48.838;9.330;2023-08-12T06:03:49;98465.97;;;20.69;100.00
55604;BME280;41468;48.838;9.330;2023-08-12T06:06:16;98457.19;;;20.70;100.00
55604;BME280;41468;48.838;9.330;2023-08-12T06:08:43;98458.81;;;20.68;100.00
55604;BME280;41468;48.838;9.330;2023-08-12T06:11:10;98459.03;;;20.77;100.00
55604;BME280;41468;48.838;9.330;2023-08-12T06:13:36;98461.88;;;20.73;100.00
55604;BME280;41468;48.838;9.330;2023-08-12T06:16:03;98470.53;;;20.76;100.00
55604;BME280;41468;48.838;9.330;2023-08-12T06:18:31;98482.09;;;20.74;100.00
55604;BME280;41468;48.838;9.330;2023-08-12T06:20:57;98487.63;;;20.74;100.00
55604;BME280;41468;48.838;9.330;2023-08-12T06:23:24;98488.59;;;20.84;100.00
55604;BME280;41468;48.838;9.330;2023-08-12T06:25:53;98495.16;;;20.73;100.00
55604;BME280;41468;48.838;9.330;2023-08-12T06:28:19;98478.50;;;20.73;100.00
55604;BME280;41468;48.838;9.330;2023-08-12T06:30:47;98463.72;;;20.80;100.00
55604;BME280;41468;48.838;9.330;2023-08-12T06:33:14;98455.13;;;20.74;100.00
55604;BME280;41468;48.838;9.330;2023-08-12T06:35:41;98457.72;;;20.82;100.00
55604;BME280;41468;48.838;9.330;2023-08-12T06:38:08;98440.22;;;20.85;100.00
55604;BME280;41468;48.838;9.330;2023-08-12T06:40:38;98435.34;;;20.89;100.00
55604;BME280;41468;48.838;9.330;2023-08-12T06:43:05;98434.81;;;20.94;100.00
55604;BME280;41468;48.838;9.330;2023-08-12T06:45:40;98436.31;;;20.99;100.00
55604;BME280;41468;48.838;9.330;2023-08-12T06:48:07;98444.00;;;21.07;99.68
55604;BME280;41468;48.838;9.330;2023-08-12T06:50:34;98447.81;;;21.13;98.70
55604;BME280;41468;48.838;9.330;2023-08-12T06:53:01;98456.66;;;21.25;99.32
55604;BME280;41468;48.838;9.330;2023-08-12T06:55:28;98447.00;;;21.29;100.00
55604;BME280;41468;48.838;9.330;2023-08-12T06:57:55;98457.59;;;21.51;100.00
55604;BME280;41468;48.838;9.330;2023-08-12T07:00:22;98449.50;;;21.56;99.47
55604;BME280;41468;48.838;9.330;2023-08-12T07:02:49;98447.44;;;21.73;98.14
55604;BME280;41468;48.838;9.330;2023-08-12T07:05:16;98450.66;;;22.01;95.40
55604;BME280;41468;48.838;9.330;2023-08-12T07:07:42;98451.63;;;22.36;92.66
55604;BME280;41468;48.838;9.330;2023-08-12T07:10:10;98460.66;;;22.66;91.28
55604;BME280;41468;48.838;9.330;2023-08-12T07:12:37;98463.97;;;22.86;90.23
55604;BME280;41468;48.838;9.330;2023-08-12T07:15:04;98457.84;;;23.04;85.67
55604;BME280;41468;48.838;9.330;2023-08-12T07:17:31;98455.03;;;23.17;85.73
55604;BME280;41468;48.838;9.330;2023-08-12T07:19:58;98455.66;;;23.34;83.33
55604;BME280;41468;48.838;9.330;2023-08-12T07:22:25;98459.38;;;23.53;81.76
55604;BME280;41468;48.838;9.330;2023-08-12T07:24:52;98463.66;;;23.45;81.55
55604;BME280;41468;48.838;9.330;2023-08-12T07:27:19;98466.38;;;23.57;82.94
55604;BME280;41468;48.838;9.330;2023-08-12T07:29:45;98462.44;;;23.80;79.73
55604;BME280;41468;48.838;9.330;2023-08-12T07:32:13;98469.41;;;23.85;80.01
55604;BME280;41468;48.838;9.330;2023-08-12T07:34:40;98466.13;;;24.31;79.74
55604;BME280;41468;48.838;9.330;2023-08-12T07:37:07;98466.19;;;24.40;76.59
55604;BME280;41468;48.838;9.330;2023-08-12T07:39:33;98467.19;;;24.24;76.19
55604;BME280;41468;48.838;9.330;2023-08-12T07:42:00;98474.69;;;24.36;76.90
55604;BME280;41468;48.838;9.330;2023-08-12T07:44:27;98467.44;;;24.70;72.96
55604;BME280;41468;48.838;9.330;2023-08-12T07:46:54;98471.72;;;25.02;73.58
55604;BME280;41468;48.838;9.330;2023-08-12T07:49:22;98468.41;;;25.35;71.59
55604;BME280;41468;48.838;9.330;2023-08-12T07:51:48;98463.59;;;25.54;70.93
55604;BME280;41468;48.838;9.330;2023-08-12T07:54:15;98463.47;;;25.85;69.98
55604;BME280;41468;48.838;9.330;2023-08-12T07:56:42;98448.97;;;26.14;69.03
55604;BME280;41468;48.838;9.330;2023-08-12T07:59:09;98453.09;;;26.37;68.54
55604;BME280;41468;48.838;9.330;2023-08-12T08:01:35;98455.34;;;26.66;63.02
55604;BME280;41468;48.838;9.330;2023-08-12T08:04:04;98449.97;;;26.87;59.90
55604;BME280;41468;48.838;9.330;2023-08-12T08:06:31;98452.22;;;26.98;62.90
55604;BME280;41468;48.838;9.330;2023-08-12T08:08:58;98463.69;;;27.09;60.73
55604;BME280;41468;48.838;9.330;2023-08-12T08:11:25;98462.75;;;27.36;62.84
55604;BME280;41468;48.838;9.330;2023-08-12T08:13:52;98456.50;;;27.56;59.35
55604;BME280;41468;48.838;9.330;2023-08-12T08:16:18;98457.09;;;27.84;58.74
55604;BME280;41468;48.838;9.330;2023-08-12T08:18:45;98454.41;;;27.66;61.08
55604;BME280;41468;48.838;9.330;2023-08-12T08:21:12;98456.09;;;27.48;58.02
55604;BME280;41468;48.838;9.330;2023-08-12T08:23:40;98453.91;;;27.28;58.09
55604;BME280;41468;48.838;9.330;2023-08-12T08:26:08;98444.19;;;27.15;57.84
55604;BME280;41468;48.838;9.330;2023-08-12T08:28:46;98445.03;;;27.54;59.72
55604;BME280;41468;48.838;9.330;2023-08-12T08:31:13;98444.31;;;27.83;60.05
55604;BME280;41468;48.838;9.330;2023-08-12T08:33:40;98428.25;;;27.98;56.44
55604;BME280;41468;48.838;9.330;2023-08-12T08:36:10;98435.03;;;28.22;55.95
55604;BME280;41468;48.838;9.330;2023-08-12T08:38:37;98433.38;;;28.30;55.15
55604;BME280;41468;48.838;9.330;2023-08-12T08:41:05;98436.00;;;28.18;56.19
55604;BME280;41468;48.838;9.330;2023-08-12T08:43:35;98438.25;;;28.00;59.82
55604;BME280;41468;48.838;9.330;2023-08-12T08:46:02;98425.94;;;28.27;58.49
55604;BME280;41468;48.838;9.330;2023-08-12T08:48:30;98437.25;;;28.47;58.64
55604;BME280;41468;48.838;9.330;2023-08-12T08:50:57;98450.97;;;28.75;56.78
55604;BME280;41468;48.838;9.330;2023-08-12T08:53:24;98448.78;;;28.84;55.31
55604;BME280;41468;48.838;9.330;2023-08-12T08:55:52;98451.81;;;28.81;55.98
55604;BME280;41468;48.838;9.330;2023-08-12T08:58:27;98444.69;;;29.00;55.18
55604;BME280;41468;48.838;9.330;2023-08-12T09:00:59;98453.88;;;29.16;55.04
55604;BME280;41468;48.838;9.330;2023-08-12T09:03:26;98449.72;;;29.32;55.34
55604;BME280;41468;48.838;9.330;2023-08-12T09:05:55;98451.50;;;29.55;54.49
55604;BME280;41468;48.838;9.330;2023-08-12T09:08:22;98448.69;;;29.55;53.41
55604;BME280;41468;48.838;9.330;2023-08-12T09:10:50;98450.81;;;29.60;53.91
55604;BME280;41468;48.838;9.330;2023-08-12T09:13:17;98450.47;;;29.73;52.36
55604;BME280;41468;48.838;9.330;2023-08-12T09:15:44;98453.34;;;29.79;51.97
55604;BME280;41468;48.838;9.330;2023-08-12T09:18:11;98447.50;;;29.62;51.88
55604;BME280;41468;48.838;9.330;2023-08-12T09:20:38;98442.53;;;29.71;51.89
55604;BME280;41468;48.838;9.330;2023-08-12T09:23:06;98443.00;;;29.90;51.60
55604;BME280;41468;48.838;9.330;2023-08-12T09:25:35;98439.00;;;30.03;52.55
55604;BME280;41468;48.838;9.330;2023-08-12T09:28:02;98429.41;;;30.15;51.41
55604;BME280;41468;48.838;9.330;2023-08-12T09:30:29;98436.50;;;30.10;51.12
55604;BME280;41468;48.838;9.330;2023-08-12T09:32:59;98436.56;;;30.16;52.16
55604;BME280;41468;48.838;9.330;2023-08-12T09:35:34;98432.69;;;30.40;51.29
55604;BME280;41468;48.838;9.330;2023-08-12T09:38:06;98432.78;;;30.51;50.46
55604;BME280;41468;48.838;9.330;2023-08-12T09:40:46;98432.19;;;30.78;50.81
55604;BME280;41468;48.838;9.330;2023-08-12T09:43:13;98430.91;;;30.79;49.55
55604;BME280;41468;48.838;9.330;2023-08-12T09:45:40;98429.19;;;30.88;48.60
55604;BME280;41468;48.838;9.330;2023-08-12T09:48:09;98432.16;;;30.73;50.96
55604;BME280;41468;48.838;9.330;2023-08-12T09:50:37;98423.47;;;30.39;49.63
55604;BME280;41468;48.838;9.330;2023-08-12T09:53:04;98419.25;;;30.55;49.56
55604;BME280;41468;48.838;9.330;2023-08-12T09:55:32;98419.47;;;30.89;50.66
55604;BME280;41468;48.838;9.330;2023-08-12T09:58:03;98414.00;;;31.22;50.37
55604;BME280;41468;48.838;9.330;2023-08-12T10:00:33;98400.53;;;31.55;46.64
55604;BME280;41468;48.838;9.330;2023-08-12T10:03:02;98391.53;;;31.45;48.76
55604;BME280;41468;48.838;9.330;2023-08-12T10:05:31;98404.38;;;30.97;47.66
55604;BME280;41468;48.838;9.330;2023-08-12T10:07:58;98388.81;;;30.65;48.08
55604;BME280;41468;48.838;9.330;2023-08-12T10:10:29;98388.16;;;30.44;50.77
55604;BME280;41468;48.838;9.330;2023-08-12T10:12:57;98394.72;;;30.03;50.17
55604;BME280;41468;48.838;9.330;2023-08-12T10:15:25;98389.91;;;29.78;50.56
55604;BME280;41468;48.838;9.330;2023-08-12T10:17:52;98382.03;;;29.61;50.68
55604;BME280;41468;48.838;9.330;2023-08-12T10:20:23;98365.69;;;29.39;50.84
55604;BME280;41468;48.838;9.330;2023-08-12T10:22:51;98357.56;;;29.21;51.79
55604;BME280;41468;48.838;9.330;2023-08-12T10:25:19;98367.34;;;29.05;54.76
55604;BME280;41468;48.838;9.330;2023-08-12T10:27:49;98386.00;;;28.88;56.95
55604;BME280;41468;48.838;9.330;2023-08-12T10:30:16;98381.34;;;28.84;57.58
55604;BME280;41468;48.838;9.330;2023-08-12T10:32:43;98380.00;;;28.80;58.21
55604;BME280;41468;48.838;9.330;2023-08-12T10:35:10;98384.38;;;28.81;56.07
55604;BME280;41468;48.838;9.330;2023-08-12T10:37:37;98393.38;;;28.85;55.13
55604;BME280;41468;48.838;9.330;2023-08-12T10:40:04;98391.59;;;28.88;56.85
55604;BME280;41468;48.838;9.330;2023-08-12T10:45:12;98385.59;;;28.95;55.49
55604;BME280;41468;48.838;9.330;2023-08-12T10:50:35;98379.50;;;29.17;56.82
55604;BME280;41468;48.838;9.330;2023-08-12T10:53:29;98387.94;;;29.17;55.52
55604;BME280;41468;48.838;9.330;2023-08-12T10:56:03;98387.38;;;29.13;53.58
55604;BME280;41468;48.838;9.330;2023-08-12T10:58:41;98390.19;;;29.13;55.73
55604;BME280;41468;48.838;9.330;2023-08-12T11:01:15;98385.41;;;29.19;55.64
55604;BME280;41468;48.838;9.330;2023-08-12T11:03:43;98384.00;;;29.09;55.04
55604;BME280;41468;48.838;9.330;2023-08-12T11:06:11;98384.97;;;29.05;54.72
55604;BME280;41468;48.838;9.330;2023-08-12T11:08:51;98379.91;;;29.10;55.68
55604;BME280;41468;48.838;9.330;2023-08-12T11:11:19;98375.16;;;29.16;54.98
55604;BME280;41468;48.838;9.330;2023-08-12T11:13:53;98372.28;;;29.10;55.71
55604;BME280;41468;48.838;9.330;2023-08-12T11:16:31;98369.22;;;29.14;55.98
55604;BME280;41468;48.838;9.330;2023-08-12T11:18:58;98353.53;;;29.74;52.03
55604;BME280;41468;48.838;9.330;2023-08-12T11:21:26;98362.63;;;30.21;51.62
55604;BME280;41468;48.838;9.330;2023-08-12T11:23:54;98352.88;;;30.54;50.54
55604;BME280;41468;48.838;9.330;2023-08-12T11:26:25;98353.72;;;31.14;49.56
55604;BME280;41468;48.838;9.330;2023-08-12T11:28:53;98352.56;;;31.66;45.97
55604;BME280;41468;48.838;9.330;2023-08-12T11:31:21;98340.78;;;32.18;46.38
55604;BME280;41468;48.838;9.330;2023-08-12T11:33:48;98325.94;;;31.95;44.93
55604;BME280;41468;48.838;9.330;2023-08-12T11:36:16;98320.25;;;31.73;45.48
55604;BME280;41468;48.838;9.330;2023-08-12T11:38:43;98318.66;;;31.38;44.85
55604;BME280;41468;48.838;9.330;2023-08-12T11:41:10;98307.38;;;31.38;44.96
55604;BME280;41468;48.838;9.330;2023-08-12T11:43:37;98308.97;;;31.84;45.06
55604;BME280;41468;48.838;9.330;2023-08-12T11:46:04;98312.84;;;32.03;43.82
55604;BME280;41468;48.838;9.330;2023-08-12T11:48:32;98305.59;;;32.47;43.04
55604;BME280;41468;48.838;9.330;2023-08-12T11:50:59;98305.31;;;32.56;43.21
55604;BME280;41468;48.838;9.330;2023-08-12T11:53:26;98317.56;;;32.76;42.57
55604;BME280;41468;48.838;9.330;2023-08-12T11:55:53;98317.81;;;32.72;43.21
55604;BME280;41468;48.838;9.330;2023-08-12T11:58:24;98330.75;;;32.56;44.18
55604;BME280;41468;48.838;9.330;2023-08-12T12:01:02;98354.91;;;32.18;44.96
55604;BME280;41468;48.838;9.330;2023-08-12T12:03:29;98343.84;;;31.69;43.46
55604;BME280;41468;48.838;9.330;2023-08-12T12:05:56;98366.88;;;31.40;43.77
55604;BME280;41468;48.838;9.330;2023-08-12T12:08:23;98385.75;;;31.11;45.35
55604;BME280;41468;48.838;9.330;2023-08-12T12:10:50;98397.47;;;30.55;47.55
55604;BME280;41468;48.838;9.330;2023-08-12T12:13:17;98421.91;;;29.60;50.82
55604;BME280;41468;48.838;9.330;2023-08-12T12:15:44;98379.94;;;28.74;53.22
55604;BME280;41468;48.838;9.330;2023-08-12T12:18:12;98376.56;;;28.20;55.32
55604;BME280;41468;48.838;9.330;2023-08-12T12:20:58;98382.81;;;27.41;58.88
55604;BME280;41468;48.838;9.330;2023-08-12T12:23:29;98405.78;;;27.06;61.74
55604;BME280;41468;48.838;9.330;2023-08-12T12:28:26;98433.66;;;26.34;68.18
55604;BME280;41468;48.838;9.330;2023-08-12T12:30:53;98455.81;;;26.04;70.93
55604;BME280;41468;48.838;9.330;2023-08-12T12:33:20;98480.22;;;25.76;73.16
55604;BME280;41468;48.838;9.330;2023-08-12T12:35:47;98466.53;;;25.60;76.22
55604;BME280;41468;48.838;9.330;2023-08-12T12:38:25;98469.66;;;25.71;83.40
55604;BME280;41468;48.838;9.330;2023-08-12T12:40:52;98472.59;;;25.49;85.96
55604;BME280;41468;48.838;9.330;2023-08-12T12:43:19;98469.41;;;25.10;84.22
55604;BME280;41468;48.838;9.330;2023-08-12T12:45:45;98460.06;;;24.85;86.63
55604;BME280;41468;48.838;9.330;2023-08-12T12:48:12;98462.00;;;24.66;90.26
55604;BME280;41468;48.838;9.330;2023-08-12T12:50:39;98467.50;;;24.48;93.60
55604;BME280;41468;48.838;9.330;2023-08-12T12:53:10;98474.69;;;24.36;96.20
55604;BME280;41468;48.838;9.330;2023-08-12T12:55:37;98486.59;;;24.28;94.51
55604;BME280;41468;48.838;9.330;2023-08-12T12:58:04;98510.94;;;24.05;97.50
55604;BME280;41468;48.838;9.330;2023-08-12T13:00:31;98523.31;;;24.04;100.00
55604;BME280;41468;48.838;9.330;2023-08-12T13:02:57;98524.59;;;24.12;100.00
55604;BME280;41468;48.838;9.330;2023-08-12T13:05:24;98540.44;;;23.93;95.96
55604;BME280;41468;48.838;9.330;2023-08-12T13:07:51;98551.47;;;23.97;98.88
55604;BME280;41468;48.838;9.330;2023-08-12T13:10:18;98558.41;;;23.92;99.73
55604;BME280;41468;48.838;9.330;2023-08-12T13:12:45;98552.00;;;24.05;100.00
55604;BME280;41468;48.838;9.330;2023-08-12T13:15:12;98550.19;;;24.11;100.00